KBFF/BFF METAR and TAF weather

Enter ICAO airport designator
Station Type Date Time Source
KBFF METAR 2020/03/31 08:53 UTC NOAA

KBFF 310853Z AUTO 35004KT 10SM CLR 01/M01 A3001 RMK AO2 SLP154 T00111006 58000


Station Type Date Time Source
KBFF Decoded METAR 2020/03/31 08:53 UTC NOAA

SCOTTSBLUFF HEILIG FIELD, NE, United States (KBFF) 41-52N 103-36W 1203M
Mar 31, 2020 - 04:53 AM EDT / 2020.03.31 0853 UTC
Wind: from the N (350 degrees) at 5 MPH (4 KT):0
Visibility: 10 mile(s):0
Sky conditions: clear
Temperature: 34.0 F (1.1 C)
Windchill: 30 F (-1 C):1
Dew Point: 30.9 F (-0.6 C)
Relative Humidity: 88%
Pressure (altimeter): 30.01 in. Hg (1016 hPa)
Pressure tendency: 0.00 inches (0.0 hPa) lower than three hours ago
ob: KBFF 310853Z AUTO 35004KT 10SM CLR 01/M01 A3001 RMK AO2 SLP154 T00111006 58000
cycle: 9

Station Type Date Time Source
KBFF TAF 2020/03/31 06:33 UTC NOAA

TAF KBFF 310530Z 3106/0106 VRB05KT P6SM SCT150
FM311900 26020G29KT P6SM SCT200
FM010100 28009KT P6SM OVC250

Example: see airport list